Time;durP1;ratioP1;P1;durP2;ratioP2;P2;SDS_P1;SDS_P2;PMS_P1;PMS_P2;Temp;Humidity;BMP_temperature;BMP_pressure;BME280_temperature;BME280_humidity;BME280_pressure;Samples;Min_cycle;Max_cycle;Signal;HPM_P1;HPM_P2
2020/12/03 00:01:05;;;;;;;38.63;19.67;;;;;;;-0.39;85.89;101700.67;1816825;77;21128;-71
2020/12/03 00:03:39;;;;;;;39.65;21.95;;;;;;;-0.41;85.90;101700.81;1839260;77;21402;-73
2020/12/03 00:06:18;;;;;;;38.80;21.35;;;;;;;-0.42;85.94;101705.73;1824196;77;21162;-71
2020/12/03 00:08:50;;;;;;;41.77;21.75;;;;;;;-0.39;85.97;101708.55;1834611;77;21461;-72
2020/12/03 00:11:33;;;;;;;36.03;20.43;;;;;;;-0.30;86.03;101705.77;1838687;76;22681;-71
2020/12/03 00:14:01;;;;;;;36.85;19.20;;;;;;;-0.32;86.04;101705.63;1846868;76;21088;-72
2020/12/03 00:16:30;;;;;;;44.23;22.50;;;;;;;-0.30;86.05;101705.77;1813593;78;21255;-71
2020/12/03 00:18:57;;;;;;;35.92;18.82;;;;;;;-0.30;86.02;101703.64;1817635;77;21111;-71
2020/12/03 00:21:47;;;;;;;43.68;22.67;;;;;;;-0.32;86.00;101702.50;1812867;78;21212;-71
2020/12/03 00:24:20;;;;;;;43.42;23.07;;;;;;;-0.35;85.97;101704.13;1807081;78;21119;-73
2020/12/03 00:26:47;;;;;;;44.18;23.20;;;;;;;-0.40;86.01;101703.76;1824857;78;21172;-73
2020/12/03 00:29:14;;;;;;;37.50;18.67;;;;;;;-0.40;86.01;101703.76;1825655;77;21150;-71
2020/12/03 00:31:43;;;;;;;50.73;24.55;;;;;;;-0.37;86.04;101700.82;1847338;76;21101;-72
2020/12/03 00:34:11;;;;;;;45.78;23.25;;;;;;;-0.41;86.00;101700.81;1823767;78;21585;-71
2020/12/03 00:36:39;;;;;;;38.55;20.92;;;;;;;-0.42;86.01;101701.80;1811334;77;21116;-72
2020/12/03 00:39:10;;;;;;;46.83;24.65;;;;;;;-0.42;86.01;101699.17;1857301;77;21200;-71
2020/12/03 00:41:38;;;;;;;48.87;23.85;;;;;;;-0.43;86.02;101693.57;1813832;77;21332;-72
2020/12/03 00:44:05;;;;;;;44.00;22.98;;;;;;;-0.37;86.05;101707.38;1837800;77;21049;-72
2020/12/03 00:46:34;;;;;;;50.58;24.85;;;;;;;-0.35;86.03;101698.88;1823930;78;21111;-72
2020/12/03 00:49:02;;;;;;;49.75;24.82;;;;;;;-0.36;86.01;101689.36;1811778;78;21108;-72
2020/12/03 00:51:30;;;;;;;45.25;23.83;;;;;;;-0.37;85.93;101694.27;1818230;77;21116;-72
2020/12/03 00:53:59;;;;;;;43.95;24.43;;;;;;;-0.39;85.92;101689.67;1821982;77;22298;-72
2020/12/03 00:56:27;;;;;;;37.30;20.72;;;;;;;-0.41;85.93;101693.43;1800920;78;21239;-72
2020/12/03 00:58:55;;;;;;;43.40;22.32;;;;;;;-0.42;85.95;101695.73;1820575;78;21057;-72
2020/12/03 01:01:23;;;;;;;46.30;23.22;;;;;;;-0.42;85.99;101688.67;1816022;78;21536;-72
2020/12/03 01:03:51;;;;;;;48.23;25.88;;;;;;;-0.41;85.99;101690.80;1814007;77;21451;-72
2020/12/03 01:06:19;;;;;;;48.23;24.87;;;;;;;-0.37;86.00;101694.75;1814645;78;21139;-72
2020/12/03 01:08:46;;;;;;;46.53;23.22;;;;;;;-0.38;86.02;101683.44;1828655;77;21172;-72
2020/12/03 01:11:14;;;;;;;46.77;24.32;;;;;;;-0.34;86.02;101681.31;1842540;76;21587;-72
2020/12/03 01:13:41;;;;;;;43.95;23.75;;;;;;;-0.33;85.97;101680.33;1817834;77;21100;-72
2020/12/03 01:16:14;;;;;;;41.42;20.92;;;;;;;-0.35;85.91;101677.87;1840540;76;21131;-72
2020/12/03 01:18:41;;;;;;;43.90;22.60;;;;;;;-0.31;85.98;101675.26;1850222;77;21353;-72
2020/12/03 01:21:09;;;;;;;42.38;21.90;;;;;;;-0.27;85.95;101675.77;1847833;76;21568;-71
2020/12/03 01:23:37;;;;;;;45.78;24.77;;;;;;;-0.29;85.87;101675.12;1825149;77;21570;-72
2020/12/03 01:26:04;;;;;;;51.80;26.73;;;;;;;-0.32;85.84;101681.50;1833536;78;21584;-73
2020/12/03 01:28:32;;;;;;;47.60;23.77;;;;;;;-0.37;85.84;101675.88;1814646;78;21139;-72
2020/12/03 01:31:03;;;;;;;42.83;21.30;;;;;;;-0.36;85.89;101676.23;1831810;78;22212;-72
2020/12/03 01:33:30;;;;;;;41.68;21.95;;;;;;;-0.37;85.87;101675.06;1818935;77;21181;-72
2020/12/03 01:35:57;;;;;;;42.23;21.73;;;;;;;-0.39;85.85;101673.92;1800243;78;21148;-72
2020/12/03 01:38:25;;;;;;;53.50;26.37;;;;;;;-0.39;85.82;101671.80;1812266;79;21068;-72
2020/12/03 01:40:52;;;;;;;43.48;22.60;;;;;;;-0.40;85.82;101669.64;1810960;78;21104;-72
2020/12/03 01:43:19;;;;;;;49.00;24.10;;;;;;;-0.39;85.81;101671.30;1812542;78;22718;-71
2020/12/03 01:45:55;;;;;;;48.98;25.25;;;;;;;-0.41;85.80;101671.13;1792790;78;21187;-72
2020/12/03 01:48:42;;;;;;;45.40;23.95;;;;;;;-0.39;85.77;101663.42;1803560;78;21143;-72
2020/12/03 01:51:22;;;;;;;50.70;25.92;;;;;;;-0.39;85.77;101660.80;1837518;76;21169;-72
2020/12/03 01:53:52;;;;;;;47.10;23.52;;;;;;;-0.39;85.80;101670.48;1846692;77;21073;-72
2020/12/03 01:56:51;;;;;;;42.73;22.23;;;;;;;-0.35;85.77;101662.12;1751003;79;22796;-71
2020/12/03 01:59:21;;;;;;;47.55;25.00;;;;;;;-0.43;85.75;101660.76;1702311;83;21200;-71
2020/12/03 02:01:50;;;;;;;42.73;22.02;;;;;;;-0.47;85.74;101660.25;1704535;81;21370;-72
2020/12/03 02:04:18;;;;;;;37.17;18.82;;;;;;;-0.49;85.79;101664.04;1719867;83;21140;-71
2020/12/03 02:06:48;;;;;;;45.55;25.05;;;;;;;-0.51;85.80;101662.05;1698921;81;21603;-72
2020/12/03 02:09:16;;;;;;;43.50;22.62;;;;;;;-0.49;85.79;101667.98;1713016;82;21086;-71
2020/12/03 02:11:43;;;;;;;51.28;25.85;;;;;;;-0.47;85.83;101658.13;1711841;82;21183;-73
2020/12/03 02:14:11;;;;;;;53.63;24.72;;;;;;;-0.46;85.81;101654.55;1709370;83;21446;-71
2020/12/03 02:16:41;;;;;;;40.78;20.88;;;;;;;-0.43;85.82;101656.83;1712105;81;21069;-71
2020/12/03 02:19:22;;;;;;;40.38;20.00;;;;;;;-0.41;85.78;101659.31;1708759;83;21504;-72
2020/12/03 02:22:06;;;;;;;39.10;18.77;;;;;;;-0.41;85.73;101653.56;1808779;77;22639;-72
2020/12/03 02:24:40;;;;;;;50.90;23.12;;;;;;;-0.48;85.73;101660.42;1785842;78;21193;-71
2020/12/03 02:27:13;;;;;;;45.75;23.45;;;;;;;-0.52;85.73;101666.98;1768920;78;21391;-72
2020/12/03 02:29:41;;;;;;;36.50;18.75;;;;;;;-0.51;85.73;101668.61;1795251;78;21602;-72
2020/12/03 02:32:08;;;;;;;39.27;19.00;;;;;;;-0.50;85.73;101668.94;1785580;78;21167;-72
2020/12/03 02:34:36;;;;;;;44.08;23.25;;;;;;;-0.53;85.70;101664.00;1800805;78;21108;-71
2020/12/03 02:37:03;;;;;;;42.60;20.92;;;;;;;-0.56;85.70;101661.68;1796854;79;21121;-72
2020/12/03 02:39:33;;;;;;;39.38;18.32;;;;;;;-0.60;85.67;101661.17;1789227;80;21381;-72
2020/12/03 02:42:01;;;;;;;45.52;24.00;;;;;;;-0.60;85.70;101662.98;1819011;77;21177;-72
2020/12/03 02:44:29;;;;;;;42.33;21.65;;;;;;;-0.60;85.73;101669.05;1810154;77;21146;-72
2020/12/03 02:46:56;;;;;;;43.55;22.00;;;;;;;-0.57;85.78;101667.92;1811155;77;21116;-71
2020/12/03 02:49:24;;;;;;;44.55;21.77;;;;;;;-0.56;85.75;101665.62;1809993;78;21048;-71
2020/12/03 02:51:54;;;;;;;39.75;18.82;;;;;;;-0.56;85.74;101666.47;1818323;78;21078;-71
2020/12/03 02:54:22;;;;;;;46.25;23.90;;;;;;;-0.56;85.71;101673.03;1815081;77;21175;-72
2020/12/03 02:56:50;;;;;;;41.90;21.37;;;;;;;-0.54;85.72;101670.23;1832630;77;21624;-72
2020/12/03 02:59:18;;;;;;;39.38;19.52;;;;;;;-0.54;85.68;101659.73;1842255;77;21492;-72
2020/12/03 03:01:45;;;;;;;45.40;22.20;;;;;;;-0.55;85.65;101660.73;1828284;77;21029;-72
2020/12/03 03:04:13;;;;;;;39.27;19.70;;;;;;;-0.54;85.66;101664.98;1833482;77;21359;-73
2020/12/03 03:06:40;;;;;;;44.88;22.17;;;;;;;-0.54;85.60;101664.98;1837298;77;21152;-71
2020/12/03 03:09:07;;;;;;;41.45;20.37;;;;;;;-0.58;85.58;101665.79;1755103;80;21098;-72
2020/12/03 03:11:36;;;;;;;45.33;23.83;;;;;;;-0.58;85.60;101667.59;1765603;80;21160;-73
2020/12/03 03:14:04;;;;;;;41.28;21.35;;;;;;;-0.56;85.64;101668.25;1772912;80;21567;-72
2020/12/03 03:16:31;;;;;;;41.77;21.33;;;;;;;-0.52;85.65;101665.66;1829090;77;21361;-72
2020/12/03 03:19:00;;;;;;;37.55;20.27;;;;;;;-0.52;85.62;101664.35;1790300;78;21136;-72
2020/12/03 03:21:28;;;;;;;41.10;21.65;;;;;;;-0.55;85.58;101667.28;1768140;79;21132;-72
2020/12/03 03:23:55;;;;;;;39.15;21.27;;;;;;;-0.56;85.64;101661.68;1780381;79;21151;-74
2020/12/03 03:26:23;;;;;;;42.90;21.87;;;;;;;-0.59;85.62;101656.28;1779431;79;21140;-71
2020/12/03 03:28:51;;;;;;;38.15;19.27;;;;;;;-0.59;85.67;101659.38;1784034;79;21300;-71
2020/12/03 03:31:19;;;;;;;35.33;19.67;;;;;;;-0.57;85.72;101652.17;1790423;80;21061;-71
2020/12/03 03:33:47;;;;;;;34.43;18.20;;;;;;;-0.58;85.68;101653.98;1779949;79;21566;-72
2020/12/03 03:36:14;;;;;;;32.03;18.67;;;;;;;-0.57;85.71;101656.93;1774819;80;21169;-72
2020/12/03 03:38:42;;;;;;;37.13;20.77;;;;;;;-0.59;85.75;101654.13;1782077;80;21591;-72
2020/12/03 03:41:10;;;;;;;30.32;16.85;;;;;;;-0.57;85.79;101660.05;1785633;78;21383;-72
2020/12/03 03:43:37;;;;;;;43.55;21.62;;;;;;;-0.55;85.81;101651.55;1847360;76;21105;-71
2020/12/03 03:46:05;;;;;;;35.98;18.98;;;;;;;-0.55;85.80;101659.41;1828366;77;21057;-71
2020/12/03 03:48:32;;;;;;;37.75;21.65;;;;;;;-0.54;85.80;101651.86;1781537;79;21109;-71
2020/12/03 03:51:00;;;;;;;38.25;19.15;;;;;;;-0.53;85.84;101651.72;1772527;80;21140;-72
2020/12/03 03:53:27;;;;;;;40.28;20.50;;;;;;;-0.53;85.84;101653.04;1826349;77;21131;-72
2020/12/03 03:55:55;;;;;;;34.08;16.97;;;;;;;-0.53;85.83;101657.44;1833546;77;21172;-73
2020/12/03 03:58:23;;;;;;;36.98;19.45;;;;;;;-0.54;85.84;101659.24;1807833;78;21108;-72
2020/12/03 04:00:50;;;;;;;33.73;18.75;;;;;;;-0.53;85.84;101660.06;1826063;77;21148;-73
2020/12/03 04:03:20;;;;;;;40.75;20.65;;;;;;;-0.54;85.85;101654.48;1829950;77;21484;-72
2020/12/03 04:05:51;;;;;;;38.13;19.77;;;;;;;-0.55;85.90;101654.17;1763473;80;21452;-72
2020/12/03 04:08:20;;;;;;;36.50;20.50;;;;;;;-0.55;85.94;101648.92;1748091;79;21093;-72
2020/12/03 04:10:49;;;;;;;37.90;19.27;;;;;;;-0.55;85.98;101647.60;1779790;79;21120;-72
2020/12/03 04:13:19;;;;;;;34.67;18.25;;;;;;;-0.54;86.02;101650.06;1773874;79;21062;-72
2020/12/03 04:15:47;;;;;;;49.38;22.65;;;;;;;-0.52;86.08;101649.42;1779957;79;21612;-72
2020/12/03 04:18:17;;;;;;;44.05;20.72;;;;;;;-0.53;86.07;101650.41;1769170;79;21171;-73
2020/12/03 04:20:44;;;;;;;44.13;21.37;;;;;;;-0.47;86.07;101658.13;1771958;79;21200;-72
2020/12/03 04:23:11;;;;;;;34.90;18.65;;;;;;;-0.47;86.08;101648.44;1777904;79;21168;-72
2020/12/03 04:25:39;;;;;;;36.13;18.35;;;;;;;-0.50;86.08;101649.25;1785433;79;21181;-72
2020/12/03 04:28:06;;;;;;;36.15;19.15;;;;;;;-0.51;86.12;101644.99;1783913;78;21151;-72
2020/12/03 04:30:33;;;;;;;39.08;21.10;;;;;;;-0.50;86.14;101639.57;1776312;79;21368;-72
2020/12/03 04:33:01;;;;;;;35.70;19.20;;;;;;;-0.50;86.16;101646.13;1772612;79;21197;-72
2020/12/03 04:35:29;;;;;;;34.45;17.25;;;;;;;-0.48;86.19;101648.62;1772090;79;21152;-72
2020/12/03 04:37:57;;;;;;;41.23;19.12;;;;;;;-0.52;86.19;101644.67;1790027;79;21133;-72
2020/12/03 04:40:32;;;;;;;34.23;18.82;;;;;;;-0.52;86.24;101652.05;1767088;79;21117;-72
2020/12/03 04:43:13;;;;;;;38.02;18.87;;;;;;;-0.48;86.27;101650.74;1788775;79;21351;-73
2020/12/03 04:45:47;;;;;;;39.70;20.50;;;;;;;-0.42;86.28;101655.05;1785988;79;21706;-71
2020/12/03 04:48:43;;;;;;;35.83;18.15;;;;;;;-0.41;86.24;101654.06;1802127;79;21148;-71
2020/12/03 04:51:46;;;;;;;35.17;18.65;;;;;;;-0.39;86.26;101652.11;1716745;79;21175;-72
2020/12/03 04:54:28;;;;;;;33.83;17.10;;;;;;;-0.37;86.27;101661.45;1794404;79;21580;-71
2020/12/03 04:57:05;;;;;;;;;;;;;;;-0.37;86.25;101660.13;1773030;78;21470;-71
2020/12/03 04:59:52;;;;;;;40.25;20.05;;;;;;;-0.39;86.24;101659.48;1770744;79;20215;-72
2020/12/03 05:02:34;;;;;;;35.80;17.82;;;;;;;-0.43;86.23;101662.08;1786601;79;21188;-71
2020/12/03 05:05:24;;;;;;;38.45;20.30;;;;;;;-0.43;86.23;101658.62;1759106;80;21220;-71
2020/12/03 05:07:57;;;;;;;33.70;15.85;;;;;;;-0.46;86.23;101658.48;1781684;78;21136;-71
2020/12/03 05:10:41;;;;;;;34.48;18.70;;;;;;;-0.45;86.28;101666.67;1781213;80;21383;-71
2020/12/03 05:13:16;;;;;;;39.75;19.92;;;;;;;-0.45;86.27;101661.42;1772061;80;21117;-71
2020/12/03 05:15:43;;;;;;;44.50;22.00;;;;;;;-0.42;86.28;101655.05;1823362;77;21175;-71
2020/12/03 05:18:48;;;;;;;40.00;20.80;;;;;;;-0.38;86.36;101664.24;1830429;77;21164;-71
2020/12/03 05:21:20;;;;;;;38.98;18.55;;;;;;;-0.35;86.35;101662.62;1822383;77;21045;-71
2020/12/03 05:23:47;;;;;;;37.50;19.15;;;;;;;-0.34;86.32;101663.76;1828688;77;22334;-71
2020/12/03 05:26:25;;;;;;;37.60;19.55;;;;;;;-0.34;86.27;101661.63;1836346;77;21196;-71
2020/12/03 05:29:06;;;;;;;38.65;19.48;;;;;;;-0.35;86.25;101662.12;1835986;77;21096;-72
2020/12/03 05:31:43;;;;;;;40.70;20.20;;;;;;;-0.35;86.28;101663.93;1795812;78;21189;-72
2020/12/03 05:34:15;;;;;;;37.63;18.60;;;;;;;-0.34;86.27;101662.94;1832825;76;21109;-72
2020/12/03 05:36:58;;;;;;;44.33;22.50;;;;;;;-0.32;86.32;101671.00;1779243;79;21361;-72
2020/12/03 05:39:50;;;;;;;39.23;20.55;;;;;;;-0.31;86.29;101668.70;1772903;80;21085;-72
2020/12/03 05:42:25;;;;;;;33.95;17.90;;;;;;;-0.27;86.27;101671.83;1761259;79;21577;-72
2020/12/03 05:44:58;;;;;;;39.20;20.45;;;;;;;-0.33;86.21;101666.73;1779242;80;21132;-72
2020/12/03 05:47:31;;;;;;;42.03;21.35;;;;;;;-0.35;86.20;101675.25;1778369;80;21251;-72
2020/12/03 05:50:07;;;;;;;36.53;17.20;;;;;;;-0.35;86.21;101671.31;1779328;79;21377;-71
2020/12/03 05:52:35;;;;;;;39.13;19.70;;;;;;;-0.34;86.24;101669.50;1766015;80;21109;-72
2020/12/03 05:55:10;;;;;;;36.13;17.87;;;;;;;-0.33;86.27;101668.05;1841817;77;21100;-72
2020/12/03 05:57:42;;;;;;;41.00;20.27;;;;;;;-0.30;86.30;101670.33;1832660;77;21204;-71
2020/12/03 06:00:24;;;;;;;32.87;15.47;;;;;;;-0.24;86.23;101675.45;1766361;79;22775;-71
2020/12/03 06:03:15;;;;;;;34.08;17.82;;;;;;;-0.34;86.21;101672.95;1721539;83;22285;-71
2020/12/03 06:06:11;;;;;;;41.98;19.37;;;;;;;-0.37;86.26;101673.75;1727840;82;21215;-71
2020/12/03 06:09:01;;;;;;;44.80;21.85;;;;;;;-0.40;86.29;101673.57;1739058;81;21099;-72
2020/12/03 06:11:47;;;;;;;41.55;19.65;;;;;;;-0.41;86.34;101680.30;1725320;82;21163;-71
2020/12/03 06:14:56;;;;;;;43.10;20.80;;;;;;;-0.40;86.41;101674.06;1721488;82;21120;-72
2020/12/03 06:17:42;;;;;;;41.48;20.45;;;;;;;-0.42;86.45;101671.61;1763591;79;21694;-72
2020/12/03 06:20:24;;;;;;;41.25;21.07;;;;;;;-0.42;86.45;101679.48;1761914;79;22461;-71
2020/12/03 06:23:16;;;;;;;44.88;21.00;;;;;;;-0.40;86.46;101685.88;1765091;81;21128;-71
2020/12/03 06:26:26;;;;;;;45.00;21.12;;;;;;;-0.42;86.47;101686.05;1724863;81;21195;-73
2020/12/03 06:29:20;;;;;;;43.83;21.97;;;;;;;-0.43;86.51;101676.51;1755520;79;21186;-71
2020/12/03 06:32:22;;;;;;;42.38;21.37;;;;;;;-0.45;86.50;101678.98;1737639;81;21521;-70
2020/12/03 06:35:01;;;;;;;42.40;22.55;;;;;;;-0.42;86.55;101682.61;1763865;79;22115;-71
2020/12/03 06:37:40;;;;;;;36.75;20.85;;;;;;;-0.44;86.54;101668.80;1733666;81;21193;-72
2020/12/03 06:40:20;;;;;;;40.50;23.90;;;;;;;-0.37;86.62;101670.64;1780240;78;28576;-72
2020/12/03 06:42:56;;;;;;;41.23;21.93;;;;;;;-0.35;86.52;101675.74;1804600;78;21145;-71
2020/12/03 06:45:56;;;;;;;38.25;20.60;;;;;;;-0.30;86.54;101678.20;1777520;79;22505;-72
2020/12/03 06:49:08;;;;;;;37.90;21.10;;;;;;;-0.30;86.52;101675.58;1787312;78;21627;-72
2020/12/03 06:52:08;;;;;;;40.95;23.25;;;;;;;-0.32;86.48;101678.88;1786187;79;21131;-71
2020/12/03 06:54:57;;;;;;;36.90;20.32;;;;;;;-0.34;86.48;101674.26;1790243;79;21128;-72
2020/12/03 06:57:55;;;;;;;42.90;22.80;;;;;;;-0.32;86.50;101677.56;1787975;78;21068;-72
2020/12/03 07:00:41;;;;;;;35.40;18.48;;;;;;;-0.32;86.46;101684.13;1806992;77;21651;-72
2020/12/03 07:03:50;;;;;;;45.60;22.45;;;;;;;-0.33;86.39;101682.48;1784424;78;21439;-72
2020/12/03 07:06:48;;;;;;;41.28;21.80;;;;;;;-0.37;86.33;101686.38;1766983;81;21588;-72
2020/12/03 07:09:37;;;;;;;49.47;24.57;;;;;;;-0.32;86.36;101685.93;1836032;77;23313;-73
2020/12/03 07:12:22;;;;;;;;;;;;;;;-0.38;86.35;101691.31;1838097;76;21113;-73
2020/12/03 07:15:41;;;;;;;42.13;21.35;;;;;;;-0.37;86.33;101687.70;1784151;78;21198;-73
2020/12/03 07:18:48;;;;;;;47.75;23.55;;;;;;;-0.40;86.27;101689.32;1850274;77;21152;-71
2020/12/03 07:21:52;;;;;;;46.90;24.25;;;;;;;-0.42;86.26;101689.98;1821307;77;21227;-72
2020/12/03 07:24:28;;;;;;;44.95;21.25;;;;;;;-0.41;86.28;101695.56;1744035;78;21188;-72
2020/12/03 07:27:35;;;;;;;47.43;23.02;;;;;;;-0.39;86.24;101692.80;1820072;77;21104;-72
2020/12/03 07:30:35;;;;;;;41.60;20.92;;;;;;;-0.38;86.19;101693.94;1807426;77;21381;-72
2020/12/03 07:33:07;;;;;;;47.43;24.10;;;;;;;-0.36;86.18;101692.45;1799661;79;21161;-72
2020/12/03 07:36:03;;;;;;;42.98;21.02;;;;;;;-0.35;86.16;101699.37;1817926;77;21212;-72
2020/12/03 07:39:25;;;;;;;47.38;24.67;;;;;;;-0.31;86.17;101700.20;1799484;78;21129;-72
2020/12/03 07:42:31;;;;;;;52.45;26.35;;;;;;;-0.30;86.12;101697.89;1798172;77;21172;-71
2020/12/03 07:44:59;;;;;;;39.23;20.08;;;;;;;-0.27;86.12;101696.27;1818884;78;21167;-71
2020/12/03 07:47:38;;;;;;;43.23;21.15;;;;;;;-0.22;86.08;101700.25;1824242;78;21155;-70
2020/12/03 07:50:07;;;;;;;46.77;23.92;;;;;;;-0.25;86.02;101702.70;1825483;78;21164;-73
2020/12/03 07:52:39;;;;;;;50.83;25.30;;;;;;;-0.28;85.95;101703.00;1844916;76;21029;-72
2020/12/03 07:55:23;;;;;;;52.73;26.42;;;;;;;-0.29;85.99;101699.56;1841573;76;26861;-71
2020/12/03 07:57:58;;;;;;;50.90;25.72;;;;;;;-0.20;85.98;101699.09;1818032;77;21407;-71
2020/12/03 08:00:51;;;;;;;48.48;23.80;;;;;;;-0.16;85.89;101704.37;1816620;77;21163;-73
2020/12/03 08:03:58;;;;;;;52.03;24.70;;;;;;;-0.15;85.82;101706.02;1819750;77;21155;-72
2020/12/03 08:07:06;;;;;;;45.63;24.03;;;;;;;-0.03;85.81;101706.06;1762466;79;22923;-71
2020/12/03 08:09:42;;;;;;;46.58;24.25;;;;;;;-0.06;85.74;101702.45;1716983;82;21227;-70
2020/12/03 08:12:25;;;;;;;47.97;23.37;;;;;;;-0.04;85.65;101691.77;1805919;77;22817;-72
2020/12/03 08:15:00;;;;;;;48.10;25.48;;;;;;;-0.10;85.59;101692.40;1761059;80;21191;-73
2020/12/03 08:17:33;;;;;;;43.85;22.73;;;;;;;-0.10;85.55;101692.40;1804474;77;21436;-72
2020/12/03 08:20:16;;;;;;;43.85;23.60;;;;;;;-0.09;85.58;101691.44;1781041;78;21216;-73
2020/12/03 08:22:48;;;;;;;41.63;21.77;;;;;;;-0.08;85.52;101687.33;1780164;78;21325;-73
2020/12/03 08:25:28;;;;;;;42.80;22.55;;;;;;;-0.09;85.53;101685.69;1774204;79;21159;-70
2020/12/03 08:28:03;;;;;;;42.45;22.30;;;;;;;-0.10;85.49;101683.20;1775714;78;21144;-71
2020/12/03 08:30:37;;;;;;;45.73;25.30;;;;;;;-0.10;85.50;101675.33;1785912;78;21332;-71
2020/12/03 08:33:08;;;;;;;42.50;23.50;;;;;;;-0.09;85.49;101679.12;1780185;78;21223;-73
2020/12/03 08:35:35;;;;;;;41.08;20.85;;;;;;;-0.07;85.48;101681.58;1793167;79;21232;-71
2020/12/03 08:38:04;;;;;;;36.90;19.30;;;;;;;-0.04;85.51;101676.83;1790019;78;21161;-71
2020/12/03 08:40:34;;;;;;;42.40;23.25;;;;;;;-0.01;85.44;101673.87;1790004;78;21182;-72
2020/12/03 08:43:08;;;;;;;50.58;27.25;;;;;;;0.02;85.39;101667.50;1785545;78;21367;-72
2020/12/03 08:48:23;;;;;;;38.53;21.40;;;;;;;0.17;85.38;101666.39;1841691;77;22797;-74
2020/12/03 08:51:01;;;;;;;44.95;24.50;;;;;;;0.14;85.31;101666.72;1790120;77;21149;-71
2020/12/03 08:53:30;;;;;;;37.20;21.27;;;;;;;0.16;85.24;101665.55;1815903;78;21369;-76
2020/12/03 08:56:20;;;;;;;35.78;20.52;;;;;;;0.18;85.18;101659.65;1793905;78;21139;-75
2020/12/03 08:59:13;;;;;;;42.93;24.70;;;;;;;0.18;85.10;101662.77;1805937;79;21187;-75
2020/12/03 09:01:45;;;;;;;39.48;22.80;;;;;;;0.18;85.08;101660.15;1793737;78;21160;-73
2020/12/03 09:04:23;;;;;;;38.80;22.50;;;;;;;0.18;85.02;101653.58;1794834;78;21155;-72
2020/12/03 09:06:57;;;;;;;39.38;22.27;;;;;;;0.17;84.92;101655.39;1798311;78;21358;-74
2020/12/03 09:09:29;;;;;;;32.95;18.15;;;;;;;0.18;84.92;101645.20;1758846;80;21096;-74
2020/12/03 09:12:07;;;;;;;44.25;25.10;;;;;;;0.19;84.88;101641.58;1797077;78;21246;-74
2020/12/03 09:14:37;;;;;;;34.95;19.23;;;;;;;0.16;84.83;101640.59;1787890;78;21175;-71
2020/12/03 09:17:08;;;;;;;37.70;21.97;;;;;;;0.19;84.83;101640.77;1791293;78;21139;-74
2020/12/03 09:19:38;;;;;;;39.13;21.77;;;;;;;0.23;84.85;101634.20;1798105;78;21290;-73
2020/12/03 09:22:07;;;;;;;34.53;19.50;;;;;;;0.26;84.83;101623.86;1794834;79;21224;-74
2020/12/03 09:24:35;;;;;;;41.77;22.87;;;;;;;0.28;84.80;101627.16;1774364;79;21170;-72
2020/12/03 09:27:04;;;;;;;40.80;22.82;;;;;;;0.26;84.70;101622.55;1806752;78;21108;-71
2020/12/03 09:29:33;;;;;;;38.23;22.77;;;;;;;0.25;84.70;101620.91;1789886;79;21625;-72
2020/12/03 09:32:10;;;;;;;40.55;21.65;;;;;;;0.29;84.73;101611.70;1797836;79;21265;-72
2020/12/03 09:34:37;;;;;;;48.02;23.73;;;;;;;0.32;84.71;101611.38;1802730;79;21302;-73
2020/12/03 09:37:06;;;;;;;33.80;19.87;;;;;;;0.31;84.67;101608.44;1781341;78;21171;-72
2020/12/03 09:39:34;;;;;;;47.33;25.17;;;;;;;0.28;84.62;101609.58;1815249;79;21252;-74
2020/12/03 09:42:04;;;;;;;44.93;23.32;;;;;;;0.26;84.59;101615.97;1791287;79;21790;-73
2020/12/03 09:44:35;;;;;;;45.65;22.85;;;;;;;0.21;84.57;101613.84;1800393;79;21381;-72
2020/12/03 09:47:13;;;;;;;48.28;23.80;;;;;;;0.20;84.63;101615.66;1791109;79;21733;-74
2020/12/03 09:49:44;;;;;;;44.42;23.45;;;;;;;0.20;84.63;101614.84;1788817;79;21166;-73
2020/12/03 09:52:12;;;;;;;35.15;20.10;;;;;;;0.23;84.67;101611.39;1788415;79;21184;-73
2020/12/03 09:54:41;;;;;;;43.05;22.32;;;;;;;0.25;84.65;101609.91;1802187;79;21120;-72
2020/12/03 09:57:09;;;;;;;39.88;23.67;;;;;;;0.25;84.66;101607.28;1788742;78;21409;-74
2020/12/03 09:59:38;;;;;;;47.38;26.10;;;;;;;0.27;84.66;101603.19;1800517;77;21115;-75
2020/12/03 10:02:15;;;;;;;39.40;20.97;;;;;;;0.28;84.67;101611.39;1806005;77;21152;-75
2020/12/03 10:05:02;;;;;;;41.18;22.85;;;;;;;0.31;84.66;101621.08;1791328;78;21116;-73
2020/12/03 10:08:04;;;;;;;37.42;21.05;;;;;;;0.31;84.63;101626.33;1790111;79;21182;-72
2020/12/03 10:11:02;;;;;;;42.17;21.82;;;;;;;0.36;84.66;101617.95;1789302;78;22371;-75
2020/12/03 10:13:50;;;;;;;46.48;24.57;;;;;;;0.38;84.61;101606.30;1798493;79;21127;-73
2020/12/03 10:16:22;;;;;;;39.18;21.40;;;;;;;0.36;84.49;101606.97;1800094;78;21132;-71
2020/12/03 10:18:52;;;;;;;41.45;22.17;;;;;;;0.35;84.45;101600.05;1787863;79;21103;-73
2020/12/03 10:21:26;;;;;;;41.80;21.57;;;;;;;0.32;84.42;101606.13;1801219;78;21215;-74
2020/12/03 10:24:17;;;;;;;40.88;22.40;;;;;;;0.26;84.44;101599.71;1798054;78;21388;-73
2020/12/03 10:27:15;;;;;;;43.70;24.43;;;;;;;0.25;84.42;101595.95;1802913;78;21191;-71
2020/12/03 10:29:46;;;;;;;38.63;19.87;;;;;;;0.21;84.42;101586.27;1800225;77;21618;-72
2020/12/03 10:32:16;;;;;;;39.85;21.80;;;;;;;0.27;84.50;101591.36;1798546;78;21159;-72
2020/12/03 10:34:46;;;;;;;43.13;23.55;;;;;;;0.26;84.46;101591.02;1799680;78;21650;-72
2020/12/03 10:37:34;;;;;;;31.02;17.32;;;;;;;0.29;84.45;101595.45;1797433;78;22252;-72
2020/12/03 10:40:15;;;;;;;44.23;24.00;;;;;;;0.26;84.47;101591.83;1796519;78;21198;-70
2020/12/03 10:43:09;;;;;;;45.45;23.38;;;;;;;0.30;84.50;101588.41;1787217;78;21191;-74
2020/12/03 10:45:40;;;;;;;50.00;25.57;;;;;;;0.34;84.47;101596.28;1797207;78;21653;-73
2020/12/03 10:48:31;;;;;;;35.50;20.25;;;;;;;0.31;84.48;101599.24;1781787;78;21629;-71
2020/12/03 10:51:04;;;;;;;47.45;25.30;;;;;;;0.31;84.45;101597.42;1794301;79;21188;-70
2020/12/03 10:53:32;;;;;;;48.63;25.80;;;;;;;0.32;84.46;101584.61;1812363;79;21218;-71
2020/12/03 10:56:03;;;;;;;41.75;20.85;;;;;;;0.33;84.47;101582.80;1799458;78;21123;-71
2020/12/03 11:01:45;;;;;;;45.03;24.40;;;;;;;0.36;84.53;101575.90;1806406;79;22791;-73
2020/12/03 11:04:14;;;;;;;43.70;23.20;;;;;;;0.32;84.53;101577.22;1778955;78;21251;-71
2020/12/03 11:06:42;;;;;;;47.65;25.17;;;;;;;0.31;84.53;101578.22;1773779;80;21196;-71
2020/12/03 11:09:20;;;;;;;49.35;25.60;;;;;;;0.29;84.53;101581.49;1795378;78;21569;-71
2020/12/03 11:11:49;;;;;;;45.92;25.00;;;;;;;0.30;84.59;101582.66;1787750;79;21657;-72
2020/12/03 11:14:18;;;;;;;42.88;23.27;;;;;;;0.30;84.64;101578.72;1751407;79;21274;-71
2020/12/03 11:16:57;;;;;;;49.13;25.45;;;;;;;0.34;84.66;101576.58;1790307;78;21499;-73
2020/12/03 11:19:35;;;;;;;43.20;23.83;;;;;;;0.39;84.65;101566.38;1894404;74;22725;-69
2020/12/03 11:22:09;;;;;;;46.48;24.40;;;;;;;0.34;84.66;101572.14;1786612;79;21120;-70
2020/12/03 11:24:46;;;;;;;47.17;24.67;;;;;;;0.31;84.66;101569.84;1780830;79;21425;-69
2020/12/03 11:27:19;;;;;;;54.08;27.00;;;;;;;0.30;84.71;101562.95;1776653;78;21155;-70
2020/12/03 11:29:47;;;;;;;47.98;25.50;;;;;;;0.29;84.71;101565.72;1782346;78;21178;-69
2020/12/03 11:32:21;;;;;;;51.13;27.60;;;;;;;0.29;84.73;101573.11;1770559;79;21559;-70
2020/12/03 11:34:53;;;;;;;43.38;22.22;;;;;;;0.29;84.76;101573.61;1781422;78;21100;-69
2020/12/03 11:37:25;;;;;;;34.95;19.32;;;;;;;0.31;84.80;101569.84;1789829;78;21209;-71
2020/12/03 11:40:04;;;;;;;;;;;;;;;0.31;84.80;101576.41;1777400;78;21187;-70
2020/12/03 11:48:28;;;;;;;50.80;25.10;;;;;;;0.25;84.89;101566.55;1758871;80;21736;-70
2020/12/03 11:50:51;;;;;;;47.73;23.12;;;;;;;0.22;84.88;101565.06;1729084;82;22437;-70
2020/12/03 11:53:26;;;;;;;52.45;25.55;;;;;;;0.25;84.96;101561.79;1742372;80;21596;-73
2020/12/03 11:55:54;;;;;;;49.67;24.70;;;;;;;0.25;84.96;101557.85;1753145;80;21133;-71
2020/12/03 11:58:29;;;;;;;45.95;23.07;;;;;;;0.26;85.01;101559.48;1730788;81;21132;-70
2020/12/03 12:01:12;;;;;;;59.67;29.27;;;;;;;0.26;84.98;101556.86;1732611;81;21235;-69
2020/12/03 12:03:43;;;;;;;59.13;28.83;;;;;;;0.27;84.97;101559.83;1728747;81;21376;-69